createdAt,value
2017-01-30T00:00:49.227Z,1009.63
2017-01-30T00:01:49.204Z,1009.59
2017-01-30T00:02:49.180Z,1009.62
2017-01-30T00:03:49.153Z,1009.58
2017-01-30T00:04:49.124Z,1009.55
2017-01-30T00:05:49.102Z,1009.57
2017-01-30T00:06:49.073Z,1009.57
2017-01-30T00:07:49.050Z,1009.53
2017-01-30T00:08:49.033Z,1009.53
2017-01-30T00:09:49.001Z,1009.51
2017-01-30T00:10:48.980Z,1009.53
2017-01-30T00:11:48.950Z,1009.47
2017-01-30T00:12:48.928Z,1009.51
2017-01-30T00:13:48.903Z,1009.42
2017-01-30T00:14:48.876Z,1009.42
2017-01-30T00:15:48.854Z,1009.39
2017-01-30T00:16:48.826Z,1009.38
2017-01-30T00:17:48.803Z,1009.36
2017-01-30T00:18:48.773Z,1009.33
2017-01-30T00:19:48.756Z,1009.32
2017-01-30T00:20:48.721Z,1009.29
2017-01-30T00:21:48.698Z,1009.26
2017-01-30T00:22:48.675Z,1009.25
2017-01-30T00:23:48.647Z,1009.26
2017-01-30T00:24:48.631Z,1009.23
2017-01-30T00:25:48.601Z,1009.23
2017-01-30T00:26:48.573Z,1009.2
2017-01-30T00:27:48.551Z,1009.21
2017-01-30T00:28:48.520Z,1009.2
2017-01-30T00:29:48.500Z,1009.17
2017-01-30T00:30:48.479Z,1009.19
2017-01-30T00:31:48.448Z,1009.15
2017-01-30T00:32:48.425Z,1009.15
2017-01-30T00:33:48.394Z,1009.09
2017-01-30T00:34:48.377Z,1009.06
2017-01-30T00:35:48.346Z,1009.05
2017-01-30T00:36:48.326Z,1009.02
2017-01-30T00:37:48.296Z,1009.02
2017-01-30T00:38:48.273Z,1008.98
2017-01-30T00:39:48.247Z,1008.94
2017-01-30T00:40:48.232Z,1008.9
2017-01-30T00:41:48.202Z,1008.91
2017-01-30T00:42:48.175Z,1008.91
2017-01-30T00:43:48.145Z,1008.91
2017-01-30T00:44:48.126Z,1008.93
2017-01-30T00:45:48.097Z,1008.92
2017-01-30T00:46:48.069Z,1008.9
2017-01-30T00:47:48.078Z,1008.89
2017-01-30T00:48:48.029Z,1008.85
2017-01-30T00:49:47.998Z,1008.88
2017-01-30T00:50:47.970Z,1008.85
2017-01-30T00:51:47.948Z,1008.87
2017-01-30T00:52:47.922Z,1008.84
2017-01-30T00:53:47.896Z,1008.86
2017-01-30T00:54:47.872Z,1008.83
2017-01-30T00:55:47.854Z,1008.83
2017-01-30T00:56:47.824Z,1008.82
2017-01-30T00:57:47.805Z,1008.78
2017-01-30T00:58:47.774Z,1008.76
2017-01-30T00:59:47.849Z,1008.75
2017-01-30T01:00:47.722Z,1008.76
2017-01-30T01:01:47.749Z,1008.79
2017-01-30T01:02:47.671Z,1008.76
2017-01-30T01:03:47.647Z,1008.74
2017-01-30T01:04:47.619Z,1008.7
2017-01-30T01:05:47.598Z,1008.69
2017-01-30T01:06:47.570Z,1008.7
2017-01-30T01:07:47.550Z,1008.67
2017-01-30T01:08:47.519Z,1008.67
2017-01-30T01:09:47.499Z,1008.64
2017-01-30T01:10:47.477Z,1008.62
2017-01-30T01:11:47.447Z,1008.6
2017-01-30T01:12:47.426Z,1008.6
2017-01-30T01:13:47.393Z,1008.55
2017-01-30T01:14:47.365Z,1008.52
2017-01-30T01:15:47.344Z,1008.53
2017-01-30T01:16:47.343Z,1008.5
2017-01-30T01:17:47.293Z,1008.51
2017-01-30T01:18:47.274Z,1008.52
2017-01-30T01:19:47.243Z,1008.48
2017-01-30T01:20:47.221Z,1008.45
2017-01-30T01:21:47.202Z,1008.45
2017-01-30T01:22:47.171Z,1008.47
2017-01-30T01:23:47.141Z,1008.41
2017-01-30T01:24:47.119Z,1008.43
2017-01-30T01:25:47.090Z,1008.41
2017-01-30T01:26:47.065Z,1008.37
2017-01-30T01:27:47.042Z,1008.4
2017-01-30T01:28:47.020Z,1008.39
2017-01-30T01:29:46.985Z,1008.36
2017-01-30T01:30:46.968Z,1008.38
2017-01-30T01:31:46.941Z,1008.34
2017-01-30T01:32:46.916Z,1008.39
2017-01-30T01:33:46.895Z,1008.34
2017-01-30T01:34:46.860Z,1008.35
2017-01-30T01:35:46.837Z,1008.36
2017-01-30T01:36:46.814Z,1008.33
2017-01-30T01:37:46.789Z,1008.33
2017-01-30T01:38:46.766Z,1008.3
2017-01-30T01:39:46.742Z,1008.31
2017-01-30T01:40:46.711Z,1008.3
2017-01-30T01:41:46.687Z,1008.31
2017-01-30T01:42:46.663Z,1008.3
2017-01-30T01:43:46.639Z,1008.29
2017-01-30T01:44:46.609Z,1008.23
2017-01-30T01:45:46.587Z,1008.24
2017-01-30T01:46:46.559Z,1008.21
2017-01-30T01:47:46.534Z,1008.23
2017-01-30T01:48:46.515Z,1008.19
2017-01-30T01:49:46.487Z,1008.18
2017-01-30T01:50:46.463Z,1008.18
2017-01-30T01:51:46.436Z,1008.15
2017-01-30T01:52:46.409Z,1008.15
2017-01-30T01:53:46.387Z,1008.16
2017-01-30T01:54:46.363Z,1008.14
2017-01-30T01:55:46.338Z,1008.13
2017-01-30T01:56:46.314Z,1008.13
2017-01-30T01:57:46.292Z,1008.1
2017-01-30T01:58:46.261Z,1008.1
2017-01-30T01:59:46.235Z,1008.05
2017-01-30T02:00:46.214Z,1008.02
2017-01-30T02:01:46.186Z,1007.98
2017-01-30T02:02:46.167Z,1007.95
2017-01-30T02:03:46.138Z,1007.91
2017-01-30T02:04:46.114Z,1007.92
2017-01-30T02:05:46.091Z,1007.88
2017-01-30T02:06:46.063Z,1007.82
2017-01-30T02:07:46.047Z,1007.84
2017-01-30T02:08:46.014Z,1007.86
2017-01-30T02:09:45.990Z,1007.81
2017-01-30T02:10:45.965Z,1007.8
2017-01-30T02:11:45.941Z,1007.8
2017-01-30T02:12:45.919Z,1007.8
2017-01-30T02:13:45.894Z,1007.78
2017-01-30T02:14:45.873Z,1007.72
2017-01-30T02:15:45.843Z,1007.73
2017-01-30T02:16:45.822Z,1007.7
2017-01-30T02:17:45.793Z,1007.72
2017-01-30T02:18:45.820Z,1007.67
2017-01-30T02:19:45.744Z,1007.67
2017-01-30T02:20:45.728Z,1007.62
2017-01-30T02:21:45.703Z,1007.59
2017-01-30T02:22:45.667Z,1007.56
2017-01-30T02:23:45.643Z,1007.55
2017-01-30T02:24:45.628Z,1007.5
2017-01-30T02:25:45.602Z,1007.48
2017-01-30T02:26:45.575Z,1007.46
2017-01-30T02:27:45.547Z,1007.37
2017-01-30T02:28:45.521Z,1007.34
2017-01-30T02:29:45.502Z,1007.34
2017-01-30T02:30:45.473Z,1007.31
2017-01-30T02:31:45.451Z,1007.31
2017-01-30T02:32:45.423Z,1007.29
2017-01-30T02:33:45.403Z,1007.23
2017-01-30T02:34:45.373Z,1007.22
2017-01-30T02:35:45.349Z,1007.21
2017-01-30T02:36:45.329Z,1007.18
2017-01-30T02:37:45.300Z,1007.14
2017-01-30T02:38:45.273Z,1007.1
2017-01-30T02:39:45.249Z,1007.08
2017-01-30T02:40:45.222Z,1007.06
2017-01-30T02:41:45.198Z,1007.08
2017-01-30T02:42:45.173Z,1007.03
2017-01-30T02:43:45.154Z,1006.97
2017-01-30T02:44:45.128Z,1007
2017-01-30T02:45:45.106Z,1006.97
2017-01-30T02:46:45.075Z,1006.98
2017-01-30T02:47:45.056Z,1007.01
2017-01-30T02:48:45.024Z,1007
2017-01-30T02:49:45.000Z,1006.97
2017-01-30T02:50:44.973Z,1007.02
2017-01-30T02:51:44.951Z,1006.99
2017-01-30T02:52:44.932Z,1007.04
2017-01-30T02:53:44.900Z,1007
2017-01-30T02:54:44.876Z,1006.96
2017-01-30T02:55:44.851Z,1006.95
2017-01-30T02:56:44.824Z,1006.96
2017-01-30T02:57:44.800Z,1006.88
2017-01-30T02:58:44.780Z,1006.9
2017-01-30T02:59:44.756Z,1006.85
2017-01-30T03:00:44.729Z,1006.86
2017-01-30T03:01:44.700Z,1006.83
2017-01-30T03:02:44.678Z,1006.8
2017-01-30T03:03:44.651Z,1006.75
2017-01-30T03:04:44.627Z,1006.74
2017-01-30T03:05:44.601Z,1006.71
2017-01-30T03:06:44.576Z,1006.66
2017-01-30T03:07:44.550Z,1006.64
2017-01-30T03:08:44.528Z,1006.61
2017-01-30T03:09:44.504Z,1006.59
2017-01-30T03:10:44.482Z,1006.6
2017-01-30T03:11:44.452Z,1006.51
2017-01-30T03:12:44.424Z,1006.54
2017-01-30T03:13:44.400Z,1006.49
2017-01-30T03:14:44.381Z,1006.43
2017-01-30T03:15:44.349Z,1006.41
2017-01-30T03:16:44.329Z,1006.41
2017-01-30T03:17:44.298Z,1006.39
2017-01-30T03:18:44.273Z,1006.39
2017-01-30T03:19:44.256Z,1006.34
2017-01-30T03:20:44.229Z,1006.33
2017-01-30T03:21:44.199Z,1006.29
2017-01-30T03:22:44.177Z,1006.3
2017-01-30T03:23:44.158Z,1006.26
2017-01-30T03:24:44.126Z,1006.26
2017-01-30T03:25:44.096Z,1006.22
2017-01-30T03:26:44.075Z,1006.2
2017-01-30T03:27:44.051Z,1006.2
2017-01-30T03:28:44.022Z,1006.16
2017-01-30T03:29:44.000Z,1006.17
2017-01-30T03:30:43.983Z,1006.11
2017-01-30T03:31:43.946Z,1006.12
2017-01-30T03:32:43.923Z,1006.07
2017-01-30T03:33:43.900Z,1006.06
2017-01-30T03:34:43.877Z,1006.05
2017-01-30T03:35:43.849Z,1006
2017-01-30T03:36:43.823Z,1005.97
2017-01-30T03:37:43.799Z,1006
2017-01-30T03:38:43.777Z,1005.94
2017-01-30T03:39:43.747Z,1005.92
2017-01-30T03:40:43.720Z,1005.91
2017-01-30T03:41:43.698Z,1005.89
2017-01-30T03:42:43.670Z,1005.87
2017-01-30T03:43:43.644Z,1005.84
2017-01-30T03:44:43.623Z,1005.77
2017-01-30T03:45:43.593Z,1005.76
2017-01-30T03:46:43.570Z,1005.75
2017-01-30T03:47:43.542Z,1005.76
2017-01-30T03:48:43.522Z,1005.72
2017-01-30T03:49:43.503Z,1005.73
2017-01-30T03:50:43.471Z,1005.66
2017-01-30T03:51:43.446Z,1005.72
2017-01-30T03:52:43.419Z,1005.69
2017-01-30T03:53:43.393Z,1005.66
2017-01-30T03:54:43.369Z,1005.6
2017-01-30T03:55:43.348Z,1005.57
2017-01-30T03:56:43.343Z,1005.51
2017-01-30T03:57:43.292Z,1005.54
2017-01-30T03:58:43.267Z,1005.53
2017-01-30T03:59:43.242Z,1005.44
2017-01-30T04:00:43.216Z,1005.47
2017-01-30T04:01:43.194Z,1005.38
2017-01-30T04:02:43.166Z,1005.39
2017-01-30T04:03:43.144Z,1005.36
2017-01-30T04:04:43.114Z,1005.36
2017-01-30T04:05:43.088Z,1005.34
2017-01-30T04:06:43.064Z,1005.33
2017-01-30T04:07:43.039Z,1005.29
2017-01-30T04:08:43.023Z,1005.27
2017-01-30T04:09:42.991Z,1005.28
2017-01-30T04:10:42.970Z,1005.25
2017-01-30T04:11:42.939Z,1005.19
2017-01-30T04:12:42.911Z,1005.21
2017-01-30T04:13:42.884Z,1005.19
2017-01-30T04:14:42.862Z,1005.19
2017-01-30T04:15:42.837Z,1005.2
2017-01-30T04:16:42.811Z,1005.17
2017-01-30T04:17:42.784Z,1005.18
2017-01-30T04:18:42.765Z,1005.17
2017-01-30T04:19:42.734Z,1005.16
2017-01-30T04:20:42.717Z,1005.1
2017-01-30T04:21:42.684Z,1005.09
2017-01-30T04:22:42.657Z,1005.07
2017-01-30T04:23:42.634Z,1004.98
2017-01-30T04:24:42.613Z,1005.02
2017-01-30T04:25:42.593Z,1005.04
2017-01-30T04:26:42.557Z,1005.01
2017-01-30T04:27:42.531Z,1005.01
2017-01-30T04:28:42.508Z,1005
2017-01-30T04:29:42.482Z,1004.95
2017-01-30T04:30:42.457Z,1004.97
2017-01-30T04:31:42.447Z,1004.89
2017-01-30T04:32:42.406Z,1004.82
2017-01-30T04:33:42.387Z,1004.82
2017-01-30T04:34:42.357Z,1004.76
2017-01-30T04:35:42.331Z,1004.72
2017-01-30T04:36:42.312Z,1004.7
2017-01-30T04:37:42.281Z,1004.7
2017-01-30T04:38:42.256Z,1004.64
2017-01-30T04:39:42.235Z,1004.63
2017-01-30T04:40:42.213Z,1004.61
2017-01-30T04:41:42.183Z,1004.55
2017-01-30T04:42:42.155Z,1004.54
2017-01-30T04:43:42.132Z,1004.54
2017-01-30T04:44:42.111Z,1004.58
2017-01-30T04:45:42.082Z,1004.58
2017-01-30T04:46:42.056Z,1004.56
2017-01-30T04:47:42.093Z,1004.58
2017-01-30T04:48:42.007Z,1004.58
2017-01-30T04:49:41.989Z,1004.54
2017-01-30T04:50:41.959Z,1004.56
2017-01-30T04:51:41.929Z,1004.5
2017-01-30T04:52:41.907Z,1004.49
2017-01-30T04:53:41.882Z,1004.48
2017-01-30T04:54:41.856Z,1004.45
2017-01-30T04:55:41.836Z,1004.47
2017-01-30T04:56:41.815Z,1004.45
2017-01-30T04:57:41.780Z,1004.4
2017-01-30T04:58:41.753Z,1004.38
2017-01-30T04:59:41.733Z,1004.37
2017-01-30T05:00:41.707Z,1004.31
2017-01-30T05:01:41.681Z,1004.32
2017-01-30T05:02:41.656Z,1004.27
2017-01-30T05:03:41.629Z,1004.25
2017-01-30T05:04:41.604Z,1004.18
2017-01-30T05:05:41.579Z,1004.17
2017-01-30T05:06:41.559Z,1004.17
2017-01-30T05:07:41.531Z,1004.13
2017-01-30T05:08:41.502Z,1004.12
2017-01-30T05:09:41.478Z,1004.1
2017-01-30T05:10:41.455Z,1004.04
2017-01-30T05:11:41.456Z,1004.03
2017-01-30T05:12:41.406Z,1003.99
2017-01-30T05:13:41.383Z,1003.97
2017-01-30T05:14:41.351Z,1003.93
2017-01-30T05:15:41.324Z,1003.93
2017-01-30T05:16:41.301Z,1003.88
2017-01-30T05:17:41.280Z,1003.92
2017-01-30T05:18:41.251Z,1003.87
2017-01-30T05:19:41.226Z,1003.87
2017-01-30T05:20:41.201Z,1003.85
2017-01-30T05:21:41.177Z,1003.86
2017-01-30T05:22:41.150Z,1003.83
2017-01-30T05:23:41.132Z,1003.81
2017-01-30T05:24:41.100Z,1003.8
2017-01-30T05:25:41.076Z,1003.74
2017-01-30T05:26:41.051Z,1003.77
2017-01-30T05:27:41.027Z,1003.72
2017-01-30T05:28:41.003Z,1003.71
2017-01-30T05:29:40.977Z,1003.69
2017-01-30T05:30:40.956Z,1003.69
2017-01-30T05:31:40.926Z,1003.68
2017-01-30T05:32:40.898Z,1003.66
2017-01-30T05:33:40.873Z,1003.64
2017-01-30T05:34:40.849Z,1003.58
2017-01-30T05:35:40.833Z,1003.62
2017-01-30T05:36:40.803Z,1003.57
2017-01-30T05:37:40.772Z,1003.59
2017-01-30T05:38:40.749Z,1003.55
2017-01-30T05:39:40.728Z,1003.57
2017-01-30T05:40:40.702Z,1003.59
2017-01-30T05:41:40.680Z,1003.57
2017-01-30T05:42:40.651Z,1003.56
2017-01-30T05:43:40.623Z,1003.54
2017-01-30T05:44:40.599Z,1003.53
2017-01-30T05:45:40.573Z,1003.49
2017-01-30T05:46:40.548Z,1003.5
2017-01-30T05:47:40.528Z,1003.46
2017-01-30T05:48:40.496Z,1003.51
2017-01-30T05:49:40.476Z,1003.47
2017-01-30T05:50:40.447Z,1003.47
2017-01-30T05:51:40.424Z,1003.53
2017-01-30T05:52:40.401Z,1003.47
2017-01-30T05:53:40.373Z,1003.52
2017-01-30T05:54:40.348Z,1003.48
2017-01-30T05:55:40.322Z,1003.45
2017-01-30T05:56:40.301Z,1003.45
2017-01-30T05:57:40.271Z,1003.48
2017-01-30T05:58:40.252Z,1003.49
2017-01-30T05:59:40.226Z,1003.48
2017-01-30T06:00:40.201Z,1003.51
2017-01-30T06:01:40.174Z,1003.5
2017-01-30T06:02:40.159Z,1003.49
2017-01-30T06:03:40.178Z,1003.47
2017-01-30T06:04:40.097Z,1003.53
2017-01-30T06:05:40.078Z,1003.51
2017-01-30T06:06:40.049Z,1003.47
2017-01-30T06:07:40.027Z,1003.48
2017-01-30T06:08:40.005Z,1003.42
2017-01-30T06:09:39.975Z,1003.39
2017-01-30T06:10:39.954Z,1003.38
2017-01-30T06:11:39.928Z,1003.41
2017-01-30T06:12:39.904Z,1003.33
2017-01-30T06:13:39.881Z,1003.34
2017-01-30T06:14:39.851Z,1003.29
2017-01-30T06:15:39.831Z,1003.29
2017-01-30T06:16:39.812Z,1003.23
2017-01-30T06:17:39.781Z,1003.25
2017-01-30T06:18:39.756Z,1003.23
2017-01-30T06:19:39.731Z,1003.2
2017-01-30T06:20:39.719Z,1003.18
2017-01-30T06:21:39.678Z,1003.2
2017-01-30T06:22:39.660Z,1003.16
2017-01-30T06:23:39.634Z,1003.12
2017-01-30T06:24:39.606Z,1003.16
2017-01-30T06:25:39.586Z,1003.12
2017-01-30T06:26:39.566Z,1003.14
2017-01-30T06:27:39.534Z,1003.15
2017-01-30T06:28:39.516Z,1003.11
2017-01-30T06:29:39.484Z,1003.09
2017-01-30T06:30:39.463Z,1003.05
2017-01-30T06:31:39.437Z,1003.09
2017-01-30T06:32:39.414Z,1003.1
2017-01-30T06:33:39.388Z,1003.06
2017-01-30T06:34:39.372Z,1003.08
2017-01-30T06:35:39.342Z,1003.08
2017-01-30T06:36:39.310Z,1003.08
2017-01-30T06:37:39.290Z,1003.1
2017-01-30T06:38:39.264Z,1003.09
2017-01-30T06:39:39.240Z,1003.11
2017-01-30T06:40:39.219Z,1003.11
2017-01-30T06:41:39.190Z,1003.11
2017-01-30T06:42:39.172Z,1003.13
2017-01-30T06:43:39.146Z,1003.15
2017-01-30T06:44:39.117Z,1003.26
2017-01-30T06:45:39.096Z,1003.26
2017-01-30T06:46:39.073Z,1003.17
2017-01-30T06:47:39.049Z,1003.2
2017-01-30T06:48:39.025Z,1003.12
2017-01-30T06:49:39.026Z,1003.16
2017-01-30T06:50:38.974Z,1003.12
2017-01-30T06:51:38.954Z,1003.1
2017-01-30T06:52:38.926Z,1003.08
2017-01-30T06:53:38.901Z,1003.1
2017-01-30T06:54:38.884Z,1003.09
2017-01-30T06:55:38.851Z,1003.11
2017-01-30T06:56:38.832Z,1003.12
2017-01-30T06:57:38.810Z,1003.14
2017-01-30T06:58:38.779Z,1003.14
2017-01-30T06:59:38.757Z,1003.14
2017-01-30T07:00:38.733Z,1003.12
2017-01-30T07:01:38.709Z,1003.11
2017-01-30T07:02:38.688Z,1003.12
2017-01-30T07:03:38.661Z,1003.06
2017-01-30T07:04:38.638Z,1003.08
2017-01-30T07:05:38.620Z,1003.09
2017-01-30T07:06:38.590Z,1003.07
2017-01-30T07:07:38.565Z,1003.06
2017-01-30T07:08:38.538Z,1003.03
2017-01-30T07:09:38.514Z,1003.02
2017-01-30T07:10:38.490Z,1003
2017-01-30T07:11:38.466Z,1003.04
2017-01-30T07:12:38.442Z,1003.03
2017-01-30T07:13:38.418Z,1003.01
2017-01-30T07:14:38.399Z,1003.01
2017-01-30T07:15:38.371Z,1002.98
2017-01-30T07:16:38.345Z,1002.97
2017-01-30T07:17:38.320Z,1002.98
2017-01-30T07:18:38.305Z,1002.98
2017-01-30T07:19:38.278Z,1002.94
2017-01-30T07:20:38.248Z,1002.99
2017-01-30T07:21:38.228Z,1002.94
2017-01-30T07:22:38.208Z,1002.97
2017-01-30T07:23:38.176Z,1002.99
2017-01-30T07:24:38.154Z,1002.94
2017-01-30T07:25:38.125Z,1002.9
2017-01-30T07:26:38.105Z,1002.9
2017-01-30T07:27:38.083Z,1002.89
2017-01-30T07:28:38.054Z,1002.9
2017-01-30T07:29:38.029Z,1002.88
2017-01-30T07:30:38.015Z,1002.88
2017-01-30T07:31:37.983Z,1002.85
2017-01-30T07:32:37.958Z,1002.84
2017-01-30T07:33:37.934Z,1002.87
2017-01-30T07:34:37.912Z,1002.86
2017-01-30T07:35:37.884Z,1002.87
2017-01-30T07:36:37.861Z,1002.84
2017-01-30T07:37:37.841Z,1002.85
2017-01-30T07:38:37.820Z,1002.79
2017-01-30T07:39:37.789Z,1002.83
2017-01-30T07:40:37.773Z,1002.82
2017-01-30T07:41:37.746Z,1002.84
2017-01-30T07:42:37.718Z,1002.82
2017-01-30T07:43:37.695Z,1002.86
2017-01-30T07:44:37.676Z,1002.88
2017-01-30T07:45:37.647Z,1002.83
2017-01-30T07:46:37.625Z,1002.88
2017-01-30T07:47:37.601Z,1002.86
2017-01-30T07:48:37.574Z,1002.88
2017-01-30T07:49:37.554Z,1002.85
2017-01-30T07:50:37.528Z,1002.88
2017-01-30T07:51:37.504Z,1002.85
2017-01-30T07:52:37.482Z,1002.83
2017-01-30T07:53:37.461Z,1002.82
2017-01-30T07:54:37.432Z,1002.83
2017-01-30T07:55:37.408Z,1002.82
2017-01-30T07:56:37.391Z,1002.79
2017-01-30T07:57:37.360Z,1002.82
2017-01-30T07:58:37.332Z,1002.79
2017-01-30T07:59:37.318Z,1002.79
2017-01-30T08:00:37.288Z,1002.79
2017-01-30T08:01:37.268Z,1002.73
2017-01-30T08:02:37.246Z,1002.74
2017-01-30T08:03:37.242Z,1002.72
2017-01-30T08:04:37.191Z,1002.76
2017-01-30T08:05:37.178Z,1002.72
2017-01-30T08:06:37.144Z,1002.71
2017-01-30T08:07:37.124Z,1002.74
2017-01-30T08:08:37.095Z,1002.72
2017-01-30T08:09:37.074Z,1002.73
2017-01-30T08:10:37.048Z,1002.72
2017-01-30T08:11:37.024Z,1002.77
2017-01-30T08:12:37.001Z,1002.71
2017-01-30T08:13:36.982Z,1002.76
2017-01-30T08:14:36.951Z,1002.71
2017-01-30T08:15:36.930Z,1002.71
2017-01-30T08:16:36.906Z,1002.74
2017-01-30T08:17:36.882Z,1002.74
2017-01-30T08:18:36.859Z,1002.7
2017-01-30T08:19:36.833Z,1002.71
2017-01-30T08:20:36.808Z,1002.69
2017-01-30T08:21:36.788Z,1002.72
2017-01-30T08:22:36.761Z,1002.74
2017-01-30T08:23:36.737Z,1002.67
2017-01-30T08:24:36.717Z,1002.68
2017-01-30T08:25:36.694Z,1002.7
2017-01-30T08:26:36.669Z,1002.65
2017-01-30T08:27:36.655Z,1002.66
2017-01-30T08:28:36.618Z,1002.67
2017-01-30T08:29:36.597Z,1002.65
2017-01-30T08:30:36.573Z,1002.71
2017-01-30T08:31:36.556Z,1002.65
2017-01-30T08:32:36.525Z,1002.61
2017-01-30T08:33:36.495Z,1002.62
2017-01-30T08:34:36.481Z,1002.61
2017-01-30T08:35:36.458Z,1002.54
2017-01-30T08:36:36.430Z,1002.59
2017-01-30T08:37:36.409Z,1002.57
2017-01-30T08:38:36.387Z,1002.58
2017-01-30T08:39:36.358Z,1002.56
2017-01-30T08:40:36.338Z,1002.57
2017-01-30T08:41:36.313Z,1002.52
2017-01-30T08:42:36.291Z,1002.52
2017-01-30T08:43:36.258Z,1002.51
2017-01-30T08:44:36.235Z,1002.51
2017-01-30T08:45:36.210Z,1002.49
2017-01-30T08:46:36.194Z,1002.49
2017-01-30T08:47:36.163Z,1002.5
2017-01-30T08:48:36.147Z,1002.47
2017-01-30T08:49:36.118Z,1002.48
2017-01-30T08:50:36.099Z,1002.41
2017-01-30T08:51:36.069Z,1002.47
2017-01-30T08:52:36.045Z,1002.43
2017-01-30T08:53:36.032Z,1002.45
2017-01-30T08:54:35.996Z,1002.43
2017-01-30T08:55:35.973Z,1002.38
2017-01-30T08:56:35.949Z,1002.38
2017-01-30T08:57:35.929Z,1002.41
2017-01-30T08:58:35.900Z,1002.38
2017-01-30T08:59:35.874Z,1002.37
2017-01-30T09:00:35.854Z,1002.36
2017-01-30T09:01:35.832Z,1002.33
2017-01-30T09:02:35.803Z,1002.31
2017-01-30T09:03:35.780Z,1002.31
2017-01-30T09:04:35.755Z,1002.35
2017-01-30T09:05:35.740Z,1002.32
2017-01-30T09:06:35.713Z,1002.35
2017-01-30T09:07:35.684Z,1002.3
2017-01-30T09:08:35.659Z,1002.34
2017-01-30T09:09:35.639Z,1002.26
2017-01-30T09:10:35.614Z,1002.21
2017-01-30T09:11:35.589Z,1002.19
2017-01-30T09:12:35.568Z,1002.2
2017-01-30T09:13:35.548Z,1002.19
2017-01-30T09:14:35.516Z,1002.17
2017-01-30T09:15:35.497Z,1002.2
2017-01-30T09:16:35.473Z,1002.15
2017-01-30T09:17:35.445Z,1002.13
2017-01-30T09:18:35.425Z,1002.15
2017-01-30T09:19:35.405Z,1002.17
2017-01-30T09:20:35.374Z,1002.19
2017-01-30T09:21:35.351Z,1002.11
2017-01-30T09:22:35.328Z,1002.08
2017-01-30T09:23:35.310Z,1002.13
2017-01-30T09:24:35.281Z,1002.12
2017-01-30T09:25:35.253Z,1002.06
2017-01-30T09:26:35.231Z,1002.07
2017-01-30T09:27:35.242Z,1002.12
2017-01-30T09:28:35.190Z,1002.1
2017-01-30T09:29:35.168Z,1002.08
2017-01-30T09:30:35.138Z,1002.09
2017-01-30T09:31:35.111Z,1002.08
2017-01-30T09:32:35.088Z,1002.1
2017-01-30T09:33:35.061Z,1002.12
2017-01-30T09:34:35.045Z,1002.05
2017-01-30T09:35:35.014Z,1002.01
2017-01-30T09:36:34.997Z,1002.05
2017-01-30T09:37:34.973Z,1002.06
2017-01-30T09:38:34.944Z,1002.05
2017-01-30T09:39:34.920Z,1002.03
2017-01-30T09:40:34.902Z,1002.06
2017-01-30T09:41:34.878Z,1002.11
2017-01-30T09:42:34.849Z,1002.06
2017-01-30T09:43:34.826Z,1002.07
2017-01-30T09:44:34.806Z,1002.06
2017-01-30T09:45:34.789Z,1002.02
2017-01-30T09:46:34.757Z,1002.06
2017-01-30T09:47:34.751Z,1002.01
2017-01-30T09:48:34.710Z,1002.04
2017-01-30T09:49:34.687Z,1002.05
2017-01-30T09:50:34.663Z,1002.1
2017-01-30T09:51:34.640Z,1002.03
2017-01-30T09:52:34.626Z,1002.02
2017-01-30T09:53:34.594Z,1002.07
2017-01-30T09:54:34.574Z,1002
2017-01-30T09:55:34.593Z,1002.02
2017-01-30T09:56:34.522Z,1002.02
2017-01-30T09:57:34.551Z,1002.06
2017-01-30T09:58:34.470Z,1002
2017-01-30T09:59:34.449Z,1002.01
2017-01-30T10:00:34.429Z,1002.02
2017-01-30T10:01:34.403Z,1002.03
2017-01-30T10:02:34.380Z,1001.99
2017-01-30T10:03:34.366Z,1001.99
2017-01-30T10:04:34.342Z,1001.99
2017-01-30T10:05:34.309Z,1001.93
2017-01-30T10:06:34.283Z,1001.99
2017-01-30T10:07:34.264Z,1001.97
2017-01-30T10:08:34.235Z,1001.95
2017-01-30T10:09:34.233Z,1001.98
2017-01-30T10:10:34.195Z,1001.91
2017-01-30T10:11:34.167Z,1001.92
2017-01-30T10:12:34.146Z,1001.87
2017-01-30T10:13:34.124Z,1001.93
2017-01-30T10:14:34.098Z,1001.89
2017-01-30T10:15:34.132Z,1001.96
2017-01-30T10:16:34.052Z,1001.96
2017-01-30T10:17:34.031Z,1001.87
2017-01-30T10:18:34.000Z,1001.88
2017-01-30T10:19:33.991Z,1001.9
2017-01-30T10:20:33.958Z,1001.86
2017-01-30T10:21:33.933Z,1001.88
2017-01-30T10:22:33.907Z,1001.86
2017-01-30T10:23:33.883Z,1001.83
2017-01-30T10:24:33.860Z,1001.86
2017-01-30T10:25:33.837Z,1001.84
2017-01-30T10:26:33.817Z,1001.86
2017-01-30T10:27:33.791Z,1001.81
2017-01-30T10:28:33.772Z,1001.82
2017-01-30T10:29:33.746Z,1001.82
2017-01-30T10:30:33.724Z,1001.81
2017-01-30T10:31:33.695Z,1001.81
2017-01-30T10:32:33.672Z,1001.82
2017-01-30T10:33:33.651Z,1001.82
2017-01-30T10:34:33.623Z,1001.79
2017-01-30T10:35:33.612Z,1001.84
2017-01-30T10:36:33.583Z,1001.77
2017-01-30T10:37:33.556Z,1001.79
2017-01-30T10:38:33.541Z,1001.8
2017-01-30T10:39:33.509Z,1001.69
2017-01-30T10:40:33.494Z,1001.76
2017-01-30T10:41:33.469Z,1001.74
2017-01-30T10:42:33.438Z,1001.68
2017-01-30T10:43:33.417Z,1001.77
2017-01-30T10:44:33.394Z,1001.75
2017-01-30T10:45:33.369Z,1001.75
2017-01-30T10:46:33.348Z,1001.69
2017-01-30T10:47:33.330Z,1001.74
2017-01-30T10:48:33.301Z,1001.73
2017-01-30T10:49:33.286Z,1001.68
2017-01-30T10:50:33.251Z,1001.68
2017-01-30T10:51:33.234Z,1001.69
2017-01-30T10:52:33.207Z,1001.66
2017-01-30T10:53:33.183Z,1001.68
2017-01-30T10:54:33.185Z,1001.63
2017-01-30T10:55:33.143Z,1001.68
2017-01-30T10:56:33.115Z,1001.62
2017-01-30T10:57:33.120Z,1001.64
2017-01-30T10:58:33.070Z,1001.63
2017-01-30T10:59:33.041Z,1001.61
2017-01-30T11:00:33.019Z,1001.61
2017-01-30T11:01:33.000Z,1001.6
2017-01-30T11:02:32.979Z,1001.6
2017-01-30T11:03:32.952Z,1001.63
2017-01-30T11:04:32.929Z,1001.61
2017-01-30T11:05:32.904Z,1001.61
2017-01-30T11:06:32.888Z,1001.61
2017-01-30T11:07:32.861Z,1001.56
2017-01-30T11:08:32.846Z,1001.53
2017-01-30T11:09:32.816Z,1001.53
2017-01-30T11:10:32.796Z,1001.5
2017-01-30T11:11:32.765Z,1001.58
2017-01-30T11:12:32.753Z,1001.49
2017-01-30T11:13:32.730Z,1001.46
2017-01-30T11:14:32.700Z,1001.45
2017-01-30T11:15:32.677Z,1001.4
2017-01-30T11:16:32.653Z,1001.4
2017-01-30T11:17:32.632Z,1001.31
2017-01-30T11:18:32.609Z,1001.32
2017-01-30T11:19:32.591Z,1001.33
2017-01-30T11:20:32.562Z,1001.28
2017-01-30T11:21:32.542Z,1001.3
2017-01-30T11:22:32.520Z,1001.33
2017-01-30T11:23:32.501Z,1001.29
2017-01-30T11:24:32.468Z,1001.26
2017-01-30T11:25:32.446Z,1001.26
2017-01-30T11:26:32.428Z,1001.27
2017-01-30T11:27:32.404Z,1001.32
2017-01-30T11:28:32.377Z,1001.25
2017-01-30T11:29:32.356Z,1001.31
2017-01-30T11:30:32.337Z,1001.27
2017-01-30T11:31:32.315Z,1001.26
2017-01-30T11:32:32.284Z,1001.27
2017-01-30T11:33:32.259Z,1001.25
2017-01-30T11:34:32.244Z,1001.22
2017-01-30T11:35:32.227Z,1001.22
2017-01-30T11:36:32.194Z,1001.24
2017-01-30T11:37:32.172Z,1001.34
2017-01-30T11:38:32.148Z,1001.19
2017-01-30T11:39:32.121Z,1001.23
2017-01-30T11:40:32.100Z,1001.27
2017-01-30T11:41:32.080Z,1001.23
2017-01-30T11:42:32.055Z,1001.2
2017-01-30T11:43:32.034Z,1001.15
2017-01-30T11:44:32.012Z,1001.15
2017-01-30T11:45:31.993Z,1001.17
2017-01-30T11:46:31.961Z,1001.11
2017-01-30T11:47:31.936Z,1001.17
2017-01-30T11:48:31.912Z,1001.17
2017-01-30T11:49:31.895Z,1001.16
2017-01-30T11:50:31.870Z,1001.18
2017-01-30T11:51:31.843Z,1001.19
2017-01-30T11:52:31.823Z,1001.19
2017-01-30T11:53:31.800Z,1001.16
2017-01-30T11:54:31.780Z,1001.19
2017-01-30T11:55:31.753Z,1001.18
2017-01-30T11:56:31.733Z,1001.25
2017-01-30T11:57:31.707Z,1001.17
2017-01-30T11:58:31.683Z,1001.11
2017-01-30T11:59:31.664Z,1001.12
2017-01-30T12:00:31.639Z,1001.07
2017-01-30T12:01:31.613Z,1001.11
2017-01-30T12:02:31.595Z,1001.12
2017-01-30T12:03:31.569Z,1001.07
2017-01-30T12:04:31.549Z,1001.12
2017-01-30T12:05:31.525Z,1001.09
2017-01-30T12:06:31.502Z,1001.05
2017-01-30T12:07:31.476Z,1001.05
2017-01-30T12:08:31.454Z,1001.08